Latest Weather Observations for Albion Park

IDN60801

Issued at 9:35 am EDT Tuesday 21 October 2014 (issued every 30 minutes, with the page automatically refreshed every 10 minutes)

About weather observations | Map of weather stations | Latest weather observations for NSW | Other Formats
Station Details ID: 068241 Name: WOLLONGONG AIRPORT Lat: -34.56 Lon: 150.79 Height: 8.0 m
Data from the previous 72 hours. | See also: Recent months at Albion Park
Date/Time
EDT
Temp
°C
App
Temp
°C
Dew
Point
Rel
Hum
%
Delta-T
°C
Wind Press
QNH
hPa
Press
MSL
hPa
Rain
since 9 am
mm
Dir
 
Spd
km/h
Gust
km/h
Spd
kts
Gust
kts
21/09:30am 15.9 14.2 11.1 73 2.5 WNW 11 13 6 7 1033.3 1033.3 0.0
21/09:00am 15.5 14.3 11.5 77 2.1 WNW 9 11 5 6 1033.2 1033.2 0.0
21/08:30am 14.8 13.6 11.6 81 1.7 NW 9 11 5 6 1032.9 1032.9 0.0
21/08:00am 15.2 14.6 11.8 80 1.8 SW 6 7 3 4 1032.8 1032.8 0.0
21/07:30am 14.2 13.3 10.6 79 1.9 SW 6 9 3 5 1032.3 1032.3 0.0
21/07:00am 13.7 13.9 10.7 82 1.6 CALM 0 0 0 0 1032.2 1032.2 0.0
21/06:30am 13.5 13.7 10.7 83 1.5 CALM 0 6 0 3 1031.9 1031.9 0.0
21/06:00am 13.3 12.5 11.2 87 1.1 SW 6 7 3 4 1031.5 1031.5 0.0
21/05:30am 13.2 12.7 10.9 86 1.2 SW 4 9 2 5 1031.5 1031.5 0.0
21/05:00am 13.3 12.4 11.5 89 0.9 SW 7 9 4 5 1031.4 1031.4 0.0
21/04:30am 13.5 11.7 10.7 83 1.5 SW 11 13 6 7 1031.4 1031.4 0.0
21/04:00am 13.3 12.7 11.7 90 0.8 WSW 6 7 3 4 1031.6 1031.6 0.0
21/03:30am 13.1 12.3 11.8 92 0.7 W 7 9 4 5 1031.7 1031.7 0.0
21/03:00am 13.3 11.8 12.0 92 0.7 W 11 13 6 7 1031.8 1031.8 0.0
21/02:30am 13.5 12.8 12.1 91 0.8 WSW 7 11 4 6 1032.0 1032.0 0.0
21/02:00am 13.6 12.9 12.0 90 0.9 S 7 7 4 4 1032.2 1032.2 0.0
21/01:30am 13.7 13.2 11.9 89 1.0 S 6 7 3 4 1032.2 1032.2 0.0
21/01:00am 13.7 12.6 12.1 90 0.9 S 9 11 5 6 1032.4 1032.4 0.0
21/12:30am 13.7 12.9 11.7 88 1.1 S 7 9 4 5 1032.6 1032.6 0.0
21/12:00am 14.1 12.6 11.8 86 1.2 S 11 15 6 8 1032.6 1032.6 0.0
 
Date/Time
EDT
Temp
°C
App
Temp
°C
Dew
Point
Rel
Hum
%
Delta-T
°C
Wind Press
QNH
hPa
Press
MSL
hPa
Rain
since 9 am
mm
Dir
 
Spd
km/h
Gust
km/h
Spd
kts
Gust
kts
20/11:30pm 14.1 13.2 11.3 83 1.5 SSW 7 11 4 6 1032.7 1032.7 0.0
20/11:07pm 14.3 13.6 11.3 82 1.6 SSW 6 7 3 4 1032.6 1032.6 0.0
20/11:00pm 14.3 13.6 11.3 82 1.6 SSW 6 7 3 4 1032.7 1032.7 0.0
20/10:52pm 14.4 13.7 11.4 82 1.6 SSW 6 9 3 5 1032.7 1032.7 0.0
20/10:30pm 14.5 13.6 11.3 81 1.7 SSW 7 11 4 6 1032.6 1032.6 0.0
20/10:00pm 14.7 13.4 11.1 79 1.9 S 9 13 5 7 1032.6 1032.6 0.0
20/09:30pm 14.6 13.3 11.2 80 1.8 S 9 13 5 7 1032.4 1032.4 0.0
20/09:00pm 14.7 12.6 11.3 80 1.8 S 13 17 7 9 1032.4 1032.4 0.0
20/08:30pm 14.8 13.5 11.4 80 1.8 S 9 13 5 7 1032.2 1032.2 0.0
20/08:00pm 14.7 13.9 11.8 83 1.5 SSW 7 11 4 6 1031.8 1031.8 0.0
20/07:30pm 14.7 12.8 11.7 82 1.6 S 13 19 7 10 1031.6 1031.6 0.0
20/07:00pm 15.0 11.6 11.2 78 2.0 S 20 32 11 17 1031.3 1031.3 0.0
20/06:30pm 16.2 13.7 9.6 65 3.4 S 13 17 7 9 1031.0 1031.0 0.0
20/06:00pm 16.4 14.0 8.6 60 4.0 S 11 19 6 10 1030.9 1030.9 0.0
20/05:30pm 16.6 13.7 9.5 63 3.7 S 15 20 8 11 1030.9 1030.9 0.0
20/05:00pm 16.3 13.1 8.3 59 4.0 S 15 22 8 12 1030.9 1030.9 0.0
20/04:30pm 16.3 12.7 10.4 68 3.1 S 20 28 11 15 1030.9 1030.9 0.0
20/04:00pm 16.0 12.0 10.5 70 2.9 S 22 30 12 16 1030.9 1030.9 0.0
20/03:30pm 16.6 13.5 10.2 66 3.4 S 17 28 9 15 1030.8 1030.8 0.0
20/03:00pm 16.8 13.2 10.4 66 3.4 S 20 32 11 17 1030.7 1030.7 0.0
20/02:30pm 17.3 14.6 11.6 69 3.1 SSW 17 22 9 12 1030.7 1030.7 0.0
20/02:00pm 17.0 13.7 11.7 71 2.9 S 20 32 11 17 1030.9 1030.9 0.0
20/01:30pm 16.8 14.0 12.7 77 2.3 S 19 28 10 15 1031.1 1031.1 0.0
20/01:08pm 16.0 13.3 12.9 82 1.7 S 19 35 10 19 1031.2 1031.2 0.0
20/01:00pm 15.7 13.3 13.9 89 1.0 S 19 32 10 17 1031.2 1031.2 0.0
20/12:52pm 15.4 11.8 13.2 87 1.2 SSE 24 33 13 18 1031.3 1031.3 0.0
20/12:40pm 16.1 12.8 12.7 80 1.9 S 22 33 12 18 1031.2 1031.2 0.0
20/12:30pm 15.6 12.4 13.1 85 1.4 S 22 35 12 19 1031.3 1031.3 0.0
20/12:20pm 16.2 12.9 13.9 86 1.3 S 24 35 13 19 1031.4 1031.4 0.0
20/12:17pm 16.2 12.8 13.7 85 1.4 S 24 35 13 19 1031.4 1031.4 0.0
20/12:03pm 15.6 12.5 13.4 87 1.2 SSE 22 33 12 18 1031.4 1031.4 0.0
20/12:00pm 15.7 13.0 13.5 87 1.2 SSE 20 32 11 17 1031.4 1031.4 0.0
20/11:51am 15.6 12.5 13.3 86 1.3 S 22 28 12 15 1031.4 1031.4 0.0
20/11:35am 15.8 12.1 13.8 88 1.1 SSE 26 43 14 23 1031.5 1031.5 0.0
20/11:30am 16.1 12.5 13.0 82 1.7 SSE 24 37 13 20 1031.4 1031.4 0.0
20/11:00am 17.6 14.2 11.4 67 3.3 S 20 32 11 17 1031.1 1031.1 0.0
20/10:30am 17.0 12.9 11.3 69 3.1 S 24 35 13 19 1031.2 1031.2 0.0
20/10:00am 17.1 12.2 11.4 69 3.1 S 28 41 15 22 1030.9 1030.9 0.0
20/09:30am 16.8 13.0 11.1 69 3.1 S 22 37 12 20 1030.5 1030.5 0.0
20/09:00am 16.8 11.7 10.6 67 3.3 S 28 50 15 27 1029.9 1029.9 0.0
20/08:30am 16.3 12.8 12.1 76 2.3 S 22 43 12 23 1029.4 1029.4 0.0
20/08:00am 17.3 12.8 11.3 68 3.2 S 26 41 14 22 1028.9 1028.9 0.0
20/07:30am 17.1 13.8 11.6 70 3.0 S 20 33 11 18 1028.2 1028.2 0.0
20/07:00am 17.2 13.9 11.7 70 3.0 SSE 20 35 11 19 1027.7 1027.7 0.0
20/06:30am 17.2 13.7 12.3 73 2.7 S 22 33 12 18 1027.0 1027.0 0.0
20/06:00am 17.0 13.2 12.3 74 2.6 S 24 33 13 18 1026.3 1026.3 0.0
20/05:45am 17.3 13.7 13.0 76 2.4 S 24 41 13 22 1026.0 1026.0 0.0
20/05:30am 17.4 13.8 13.1 76 2.4 SSE 24 43 13 23 1025.7 1025.7 0.0
20/05:09am 17.5 12.7 14.0 80 2.0 S 32 50 17 27 1024.7 1024.7 0.0
20/05:01am 17.9 13.9 14.2 79 2.1 SSE 28 43 15 23 1024.6 1024.6 0.0
20/05:00am 18.0 14.1 14.3 79 2.1 SSE 28 41 15 22 1024.6 1024.6 0.0
20/04:33am 19.4 13.4 13.3 68 3.5 S 37 56 20 30 1023.2 1023.2 0.0
20/04:30am 20.0 12.7 12.7 63 4.1 S 43 56 23 30 1023.0 1023.0 0.0
20/04:26am 20.5 13.1 12.5 60 4.5 S 43 56 23 30 1022.4 1022.4 0.0
20/04:23am 19.6 18.1 13.1 66 3.7 SSE 13 33 7 18 1021.9 1021.9 0.0
20/04:00am 14.6 14.6 13.5 93 0.6 SSE 6 11 3 6 1020.4 1020.4 0.0
20/03:30am 14.9 14.6 14.4 97 0.3 SW 9 11 5 6 1020.3 1020.3 0.0
20/03:00am 13.8 13.6 13.6 99 0.1 WSW 7 20 4 11 1020.3 1020.3 0.0
20/02:30am 13.5 13.4 13.3 99 0.1 SW 6 11 3 6 1021.0 1021.0 0.0
20/02:00am 12.6 12.0 12.3 98 0.2 SW 7 11 4 6 1021.1 1021.1 0.0
20/01:30am 13.1 12.9 12.9 99 0.1 SW 6 11 3 6 1021.4 1021.4 0.0
20/01:00am 13.1 13.6 12.9 99 0.1 W 2 7 1 4 1021.3 1021.3 0.0
20/12:30am 12.2 11.4 11.6 96 0.3 W 7 11 4 6 1021.7 1021.7 0.0
20/12:00am 13.9 14.2 13.3 96 0.3 NW 4 7 2 4 1021.9 1021.9 0.0
 
Date/Time
EDT
Temp
°C
App
Temp
°C
Dew
Point
Rel
Hum
%
Delta-T
°C
Wind Press
QNH
hPa
Press
MSL
hPa
Rain
since 9 am
mm
Dir
 
Spd
km/h
Gust
km/h
Spd
kts
Gust
kts
19/11:30pm 14.7 15.7 14.2 97 0.3 W 2 7 1 4 1022.4 1022.4 0.0
19/11:00pm 14.9 16.2 14.1 95 0.4 CALM 0 0 0 0 1022.4 1022.4 0.0
19/10:30pm 15.3 16.3 14.3 94 0.6 WNW 2 7 1 4 1022.5 1022.5 0.0
19/10:00pm 16.0 16.4 15.2 95 0.5 WNW 7 9 4 5 1022.5 1022.5 0.0
19/09:30pm 15.9 16.1 14.8 93 0.6 W 7 9 4 5 1022.5 1022.5 0.0
19/09:00pm 16.7 17.6 15.2 91 0.9 N 4 9 2 5 1022.4 1022.4 0.0
19/08:30pm 17.5 18.9 15.3 87 1.3 E 2 7 1 4 1022.0 1022.0 0.0
19/08:00pm 18.1 18.3 15.7 86 1.4 E 9 11 5 6 1021.7 1021.7 0.0
19/07:30pm 18.9 19.5 15.9 83 1.8 E 7 9 4 5 1021.5 1021.5 0.0
19/07:00pm 19.9 19.5 16.2 79 2.2 ENE 13 17 7 9 1021.4 1021.4 0.0
19/06:30pm 20.7 19.8 15.9 74 2.9 E 15 19 8 10 1021.3 1021.3 0.0
19/06:00pm 21.1 19.5 16.1 73 3.0 ENE 19 24 10 13 1021.0 1021.0 0.0
19/05:30pm 21.5 19.9 16.5 73 3.0 ENE 20 26 11 14 1021.1 1021.1 0.0
19/05:00pm 21.6 19.3 15.7 69 3.5 ENE 22 30 12 16 1021.1 1021.1 0.0
19/04:30pm 21.9 19.8 16.2 70 3.4 ENE 22 30 12 16 1021.1 1021.1 0.0
19/04:00pm 22.0 19.6 16.3 70 3.4 ENE 24 30 13 16 1021.2 1021.2 0.0
19/03:30pm 22.2 19.7 16.2 69 3.6 ENE 24 33 13 18 1021.3 1021.3 0.0
19/03:00pm 22.8 20.8 16.4 67 3.9 ENE 22 30 12 16 1021.5 1021.5 0.0
19/02:30pm 22.6 20.2 15.4 64 4.3 ENE 22 28 12 15 1022.1 1022.1 0.0
19/02:00pm 22.9 20.6 15.7 64 4.3 ENE 22 32 12 17 1022.6 1022.6 0.0
19/01:30pm 23.2 20.5 14.7 58 5.0 ENE 22 30 12 16 1022.9 1022.9 0.0
19/01:00pm 22.8 19.3 14.6 60 4.8 ENE 26 35 14 19 1022.9 1022.9 0.0
19/12:30pm 24.0 20.9 14.4 55 5.7 ENE 24 30 13 16 1023.0 1023.0 0.0
19/12:00pm 23.8 21.0 13.1 51 6.2 ENE 20 26 11 14 1023.6 1023.6 0.0
19/11:30am 23.4 20.4 12.1 49 6.4 ENE 19 24 10 13 1024.3 1024.3 0.0
19/11:00am 22.5 20.0 12.2 52 5.8 ENE 17 22 9 12 1024.8 1024.8 0.0
19/10:30am 21.6 18.8 11.3 52 5.7 ENE 17 20 9 11 1025.4 1025.4 0.0
19/10:00am 20.4 17.4 10.8 54 5.2 ENE 17 20 9 11 1026.0 1026.0 0.0
19/09:30am 19.9 18.2 11.1 57 4.8 NE 11 17 6 9 1026.3 1026.3 0.0
19/09:00am 18.8 18.9 11.4 62 4.0 NE 2 11 1 6 1026.5 1026.5 0.0
19/08:30am 15.4 15.1 10.2 71 2.7 WSW 2 7 1 4 1026.7 1026.7 0.0
19/08:00am 12.7 13.0 10.9 89 0.9 CALM 0 0 0 0 1026.5 1026.5 0.0
19/07:30am 11.1 11.3 10.5 96 0.3 CALM 0 0 0 0 1026.5 1026.5 0.0
19/07:00am 9.4 9.3 9.3 99 0.0 CALM 0 0 0 0 1026.4 1026.4 0.0
19/06:30am 7.9 7.4 7.8 99 0.0 CALM 0 0 0 0 1026.3 1026.3 0.0
19/06:00am 7.7 7.1 7.4 98 0.1 CALM 0 0 0 0 1026.2 1026.2 0.0
19/05:30am 8.1 7.2 7.8 98 0.1 W 2 7 1 4 1026.1 1026.1 0.0
19/05:00am 8.3 7.4 7.9 97 0.2 W 2 7 1 4 1026.3 1026.3 0.0
19/04:30am 9.0 8.7 8.7 98 0.1 CALM 0 0 0 0 1026.4 1026.4 0.0
19/04:00am 8.6 8.2 8.2 97 0.2 CALM 0 0 0 0 1026.7 1026.7 0.0
19/03:30am 8.7 8.3 8.3 97 0.2 CALM 0 0 0 0 1026.8 1026.8 0.0
19/03:00am 8.9 8.5 8.3 96 0.3 CALM 0 0 0 0 1027.0 1027.0 0.0
19/02:30am 9.0 6.9 8.2 95 0.4 W 9 11 5 6 1026.9 1026.9 0.0
19/02:00am 9.7 8.2 9.1 96 0.3 WNW 7 11 4 6 1027.2 1027.2 0.0
19/01:30am 9.4 9.1 8.6 95 0.4 CALM 0 0 0 0 1027.5 1027.5 0.0
19/01:00am 9.8 8.4 8.9 94 0.4 W 6 7 3 4 1027.9 1027.9 0.0
19/12:30am 9.8 8.2 8.6 92 0.6 W 7 11 4 6 1028.3 1028.3 0.0
19/12:00am 10.7 9.2 9.3 91 0.7 NNW 7 9 4 5 1028.5 1028.5 0.0
 
Date/Time
EDT
Temp
°C
App
Temp
°C
Dew
Point
Rel
Hum
%
Delta-T
°C
Wind Press
QNH
hPa
Press
MSL
hPa
Rain
since 9 am
mm
Dir
 
Spd
km/h
Gust
km/h
Spd
kts
Gust
kts
18/11:30pm 10.5 9.1 8.9 90 0.8 W 6 7 3 4 1028.3 1028.3 0.0
18/11:00pm 11.2 9.1 9.6 90 0.8 W 11 11 6 6 1028.4 1028.4 0.0
18/10:30pm 11.4 9.3 9.7 89 0.9 W 11 11 6 6 1028.5 1028.5 0.0
18/10:00pm 11.8 9.8 10.0 89 0.9 W 11 13 6 7 1028.6 1028.6 0.0
18/09:30pm 11.9 9.9 10.1 89 0.9 W 11 13 6 7 1028.9 1028.9 0.0
18/09:00pm 12.6 10.7 10.5 87 1.1 W 11 13 6 7 1028.7 1028.7 0.0
18/08:30pm 13.2 11.3 10.6 84 1.4 W 11 13 6 7 1028.2 1028.2 0.0
18/08:00pm 16.4 14.7 9.8 65 3.4 N 9 13 5 7 1027.8 1027.8 0.0
18/07:30pm 16.7 14.6 9.9 64 3.6 N 11 13 6 7 1027.6 1027.6 0.0
18/07:00pm 17.1 14.2 9.8 62 3.8 NE 15 20 8 11 1027.2 1027.2 0.0
18/06:30pm 17.7 14.8 9.6 59 4.3 NE 15 20 8 11 1026.9 1026.9 0.0
18/06:00pm 18.0 14.7 9.4 57 4.5 NE 17 19 9 10 1026.8 1026.8 0.0
18/05:30pm 18.3 14.6 9.4 56 4.7 ENE 19 24 10 13 1026.5 1026.5 0.0
18/05:00pm 18.7 15.1 10.0 57 4.6 NE 19 24 10 13 1026.5 1026.5 0.0
18/04:30pm 18.8 15.6 10.1 57 4.6 NE 17 20 9 11 1026.7 1026.7 0.0
18/04:00pm 18.7 15.1 10.0 57 4.6 NE 19 24 10 13 1026.8 1026.8 0.0
18/03:30pm 19.6 16.6 12.1 62 4.2 NE 19 22 10 12 1027.0 1027.0 0.0
18/03:00pm 18.9 15.7 9.9 56 4.8 NE 17 24 9 13 1027.4 1027.4 0.0
18/02:30pm 18.8 15.2 10.4 58 4.5 NE 20 24 11 13 1027.6 1027.6 0.0
18/02:00pm 19.3 16.0 11.6 61 4.2 NE 20 26 11 14 1027.8 1027.8 0.0
18/01:30pm 19.2 15.6 10.5 57 4.7 NE 20 26 11 14 1027.9 1027.9 0.0
18/01:00pm 19.1 15.4 10.1 56 4.8 NE 20 26 11 14 1028.2 1028.2 0.0
18/12:30pm 19.0 15.4 10.0 56 4.8 NE 19 24 10 13 1028.7 1028.7 0.0
18/12:00pm 18.7 15.1 10.0 57 4.6 NE 19 24 10 13 1029.1 1029.1 0.0
18/11:30am 18.9 15.0 8.8 52 5.3 NE 19 24 10 13 1029.5 1029.5 0.0
18/11:00am 18.6 15.2 7.7 49 5.5 NE 15 17 8 9 1029.8 1029.8 0.0
18/10:30am 18.4 15.9 8.4 52 5.2 NE 11 17 6 9 1030.0 1030.0 0.0
18/10:00am 17.7 15.1 5.9 46 5.7 NE 9 15 5 8 1029.9 1029.9 0.0

Other Formats:

Comma delimited format used in spreadsheet applications
http://www.bom.gov.au/fwo/IDN60801/IDN60801.95748.axf

JavaScript Object Notation format (JSON) in row-major order
http://www.bom.gov.au/fwo/IDN60801/IDN60801.95748.json